createdAt,value
2018-12-20T00:01:21.149Z,21.20
2018-12-20T00:03:50.316Z,22.40
2018-12-20T00:06:19.386Z,20.40
2018-12-20T00:08:48.700Z,20.93
2018-12-20T00:11:17.874Z,23.53
2018-12-20T00:13:47.015Z,23.07
2018-12-20T00:16:16.017Z,21.47
2018-12-20T00:18:45.281Z,21.63
2018-12-20T00:21:14.351Z,19.40
2018-12-20T00:23:43.421Z,21.00
2018-12-20T00:26:12.534Z,21.83
2018-12-20T00:28:41.789Z,19.80
2018-12-20T00:31:13.673Z,20.40
2018-12-20T00:33:41.824Z,21.70
2018-12-20T00:36:10.983Z,20.80
2018-12-20T00:38:40.524Z,19.20
2018-12-20T00:41:09.507Z,20.17
2018-12-20T00:43:38.662Z,20.33
2018-12-20T00:46:07.797Z,19.20
2018-12-20T00:48:36.724Z,18.63
2018-12-20T00:51:05.641Z,22.47
2018-12-20T00:53:34.665Z,21.37
2018-12-20T00:56:03.689Z,21.37
2018-12-20T00:58:32.597Z,20.53
2018-12-20T01:01:01.433Z,19.33
2018-12-20T01:03:30.675Z,21.50
2018-12-20T01:05:59.809Z,23.37
2018-12-20T01:08:28.779Z,21.60
2018-12-20T01:10:57.888Z,22.73
2018-12-20T01:13:27.149Z,22.83
2018-12-20T01:15:56.344Z,21.93
2018-12-20T01:18:25.372Z,21.23
2018-12-20T01:20:54.582Z,21.13
2018-12-20T01:23:23.671Z,23.10
2018-12-20T01:25:52.609Z,20.87
2018-12-20T01:28:21.719Z,22.37
2018-12-20T01:30:51.159Z,22.20
2018-12-20T01:33:20.455Z,20.80
2018-12-20T01:35:49.722Z,21.53
2018-12-20T01:38:18.799Z,22.03
2018-12-20T01:40:47.882Z,25.47
2018-12-20T01:43:16.974Z,22.03
2018-12-20T01:45:46.044Z,22.43
2018-12-20T01:48:15.185Z,22.60
2018-12-20T01:50:44.203Z,22.40
2018-12-20T01:53:13.235Z,21.80
2018-12-20T01:55:42.250Z,22.70
2018-12-20T01:58:11.452Z,22.13
2018-12-20T02:00:40.487Z,22.10
2018-12-20T02:03:09.545Z,20.07
2018-12-20T02:05:38.690Z,22.73
2018-12-20T02:08:07.821Z,22.50
2018-12-20T02:10:36.846Z,20.90
2018-12-20T02:13:05.776Z,20.30
2018-12-20T02:15:35.062Z,20.93
2018-12-20T02:18:03.983Z,18.90
2018-12-20T02:20:33.056Z,19.30
2018-12-20T02:23:02.210Z,20.30
2018-12-20T02:25:31.292Z,19.40
2018-12-20T02:28:00.419Z,19.80
2018-12-20T02:30:29.351Z,19.17
2018-12-20T02:32:58.640Z,19.53
2018-12-20T02:35:27.645Z,17.90
2018-12-20T02:37:56.723Z,15.90
2018-12-20T02:40:25.749Z,18.00
2018-12-20T02:42:55.065Z,16.13
2018-12-20T02:45:24.137Z,18.30
2018-12-20T02:47:53.283Z,14.93
2018-12-20T02:50:22.467Z,16.97
2018-12-20T02:52:51.886Z,16.93
2018-12-20T02:55:21.006Z,17.40
2018-12-20T02:57:50.211Z,22.80
2018-12-20T03:00:19.396Z,20.40
2018-12-20T03:02:48.417Z,19.37
2018-12-20T03:05:17.399Z,19.40
2018-12-20T03:07:46.403Z,19.07
2018-12-20T03:10:15.786Z,19.60
2018-12-20T03:12:44.888Z,21.07
2018-12-20T03:15:19.845Z,20.10
2018-12-20T03:17:44.952Z,19.10
2018-12-20T03:20:14.056Z,16.83
2018-12-20T03:22:43.147Z,15.93
2018-12-20T03:25:12.149Z,17.03
2018-12-20T03:27:41.288Z,15.40
2018-12-20T03:30:10.324Z,14.77
2018-12-20T03:32:39.301Z,17.07
2018-12-20T03:35:08.297Z,16.17
2018-12-20T03:37:37.486Z,17.23
2018-12-20T03:40:06.571Z,14.47
2018-12-20T03:42:35.708Z,16.23
2018-12-20T03:45:04.852Z,17.13
2018-12-20T03:47:33.887Z,18.67
2018-12-20T03:50:03.066Z,18.33
2018-12-20T03:52:32.186Z,18.67
2018-12-20T03:55:01.314Z,19.27
2018-12-20T03:57:30.293Z,18.93
2018-12-20T03:59:59.332Z,18.93
2018-12-20T04:02:28.366Z,17.97
2018-12-20T04:04:57.506Z,18.33
2018-12-20T04:07:26.570Z,18.40
2018-12-20T04:09:55.734Z,15.50
2018-12-20T04:12:24.651Z,18.20
2018-12-20T04:14:53.695Z,15.07
2018-12-20T04:17:22.691Z,14.57
2018-12-20T04:19:51.669Z,15.80
2018-12-20T04:22:20.678Z,14.80
2018-12-20T04:24:49.645Z,18.10
2018-12-20T04:27:18.580Z,18.10
2018-12-20T04:29:47.684Z,17.90
2018-12-20T04:32:16.860Z,18.23
2018-12-20T04:34:45.811Z,18.80
2018-12-20T04:37:14.944Z,16.57
2018-12-20T04:39:44.346Z,17.40
2018-12-20T04:42:13.402Z,17.20
2018-12-20T04:44:42.784Z,15.83
2018-12-20T04:47:11.945Z,17.90
2018-12-20T04:49:41.106Z,17.67
2018-12-20T04:52:10.551Z,19.70
2018-12-20T04:54:39.681Z,19.30
2018-12-20T04:57:08.662Z,19.23
2018-12-20T04:59:37.957Z,19.10
2018-12-20T05:02:06.987Z,20.53
2018-12-20T05:04:35.943Z,22.20
2018-12-20T05:07:05.347Z,22.90
2018-12-20T05:09:34.514Z,19.40
2018-12-20T05:12:03.934Z,16.70
2018-12-20T05:14:33.155Z,16.97
2018-12-20T05:17:02.201Z,17.20
2018-12-20T05:19:31.312Z,16.63
2018-12-20T05:22:00.407Z,15.90
2018-12-20T05:24:29.510Z,16.77
2018-12-20T05:26:58.637Z,16.43
2018-12-20T05:29:27.697Z,16.93
2018-12-20T05:31:56.827Z,14.30
2018-12-20T05:34:26.067Z,16.50
2018-12-20T05:36:55.287Z,15.63
2018-12-20T05:39:24.457Z,14.87
2018-12-20T05:41:53.740Z,14.87
2018-12-20T05:44:23.067Z,16.17
2018-12-20T05:46:52.297Z,16.87
2018-12-20T05:49:21.329Z,16.60
2018-12-20T05:51:50.392Z,19.90
2018-12-20T05:54:19.555Z,20.50
2018-12-20T05:56:48.665Z,16.83
2018-12-20T05:59:17.589Z,19.07
2018-12-20T06:01:46.611Z,20.07
2018-12-20T06:04:15.548Z,15.90
2018-12-20T06:06:44.788Z,20.10
2018-12-20T06:09:13.836Z,17.47
2018-12-20T06:11:42.808Z,21.57
2018-12-20T06:14:11.801Z,19.10
2018-12-20T06:16:40.772Z,16.37
2018-12-20T06:19:09.847Z,19.20
2018-12-20T06:21:38.948Z,22.80
2018-12-20T06:24:08.040Z,20.00
2018-12-20T06:26:37.124Z,18.00
2018-12-20T06:29:06.104Z,20.07
2018-12-20T06:31:35.232Z,18.80
2018-12-20T06:34:04.265Z,17.63
2018-12-20T06:36:33.336Z,16.13
2018-12-20T06:39:02.328Z,14.97
2018-12-20T06:41:31.788Z,15.83
2018-12-20T06:44:07.155Z,15.73
2018-12-20T06:46:31.841Z,19.80
2018-12-20T06:49:00.901Z,17.17
2018-12-20T06:51:29.859Z,15.70
2018-12-20T06:53:58.960Z,18.50
2018-12-20T06:56:27.893Z,19.90
2018-12-20T06:58:56.824Z,15.97
2018-12-20T07:01:25.724Z,15.40
2018-12-20T07:03:54.786Z,16.77
2018-12-20T07:06:23.828Z,15.80
2018-12-20T07:08:52.853Z,16.87
2018-12-20T07:11:21.793Z,14.60
2018-12-20T07:13:50.777Z,15.40
2018-12-20T07:16:19.769Z,13.30
2018-12-20T07:18:48.741Z,13.53
2018-12-20T07:21:17.816Z,16.93
2018-12-20T07:23:46.794Z,19.80
2018-12-20T07:26:15.805Z,15.73
2018-12-20T07:31:16.719Z,17.00
2018-12-20T07:33:45.653Z,16.37
2018-12-20T07:36:14.692Z,15.10
2018-12-20T07:38:43.615Z,15.60
2018-12-20T07:44:59.243Z,15.73
2018-12-20T07:47:28.229Z,15.40
2018-12-20T07:49:57.171Z,17.50
2018-12-20T07:52:26.169Z,15.40
2018-12-20T07:54:55.254Z,18.97
2018-12-20T07:57:24.964Z,15.60
2018-12-20T07:59:54.192Z,14.53
2018-12-20T08:02:23.177Z,14.63
2018-12-20T08:04:52.148Z,14.30
2018-12-20T08:07:21.246Z,14.83
2018-12-20T08:09:50.213Z,16.17
2018-12-20T08:12:19.246Z,15.10
2018-12-20T08:14:48.257Z,13.93
2018-12-20T08:17:17.286Z,14.60
2018-12-20T08:19:46.251Z,14.13
2018-12-20T08:22:15.213Z,17.13
2018-12-20T08:24:44.228Z,15.07
2018-12-20T08:27:13.221Z,16.70
2018-12-20T08:29:44.271Z,16.60
2018-12-20T08:32:13.197Z,15.87
2018-12-20T08:34:42.413Z,16.27
2018-12-20T08:37:11.341Z,13.10
2018-12-20T08:39:40.213Z,15.50
2018-12-20T08:42:09.179Z,16.70
2018-12-20T08:44:38.153Z,16.50
2018-12-20T08:47:07.170Z,15.40
2018-12-20T08:49:36.241Z,16.40
2018-12-20T08:52:05.237Z,15.60
2018-12-20T08:54:34.123Z,16.33
2018-12-20T08:57:04.342Z,16.33
2018-12-20T08:59:33.538Z,18.00
2018-12-20T09:02:02.421Z,18.97
2018-12-20T09:04:31.447Z,14.90
2018-12-20T09:07:00.472Z,15.43
2018-12-20T09:09:29.474Z,17.97
2018-12-20T09:11:58.464Z,21.70
2018-12-20T09:14:27.501Z,16.17
2018-12-20T09:17:02.932Z,16.53
2018-12-20T09:19:27.580Z,16.20
2018-12-20T09:21:56.597Z,15.30
2018-12-20T09:24:25.665Z,13.43
2018-12-20T09:26:54.768Z,17.77
2018-12-20T09:29:23.750Z,16.30
2018-12-20T09:31:52.748Z,19.27
2018-12-20T09:34:21.618Z,14.90
2018-12-20T09:36:50.644Z,16.00
2018-12-20T09:39:19.625Z,16.73
2018-12-20T09:41:48.605Z,16.90
2018-12-20T09:44:17.562Z,18.70
2018-12-20T09:46:46.579Z,18.03
2018-12-20T09:49:15.594Z,17.30
2018-12-20T09:51:44.501Z,18.10
2018-12-20T09:54:13.458Z,16.17
2018-12-20T09:56:42.478Z,15.53
2018-12-20T09:59:11.392Z,15.07
2018-12-20T10:01:40.318Z,16.70
2018-12-20T10:04:09.287Z,15.77
2018-12-20T10:06:38.359Z,17.53
2018-12-20T10:09:08.025Z,17.53
2018-12-20T10:11:36.957Z,18.40
2018-12-20T10:14:06.032Z,14.20
2018-12-20T10:16:34.979Z,15.60
2018-12-20T10:19:03.958Z,16.40
2018-12-20T10:21:32.859Z,15.57
2018-12-20T10:24:01.749Z,15.93
2018-12-20T10:26:30.682Z,17.10
2018-12-20T10:28:59.722Z,17.33
2018-12-20T10:31:28.746Z,19.07
2018-12-20T10:33:57.681Z,17.87
2018-12-20T10:36:26.626Z,18.83
2018-12-20T10:38:55.714Z,22.07
2018-12-20T10:41:24.737Z,18.07
2018-12-20T10:43:53.722Z,18.20
2018-12-20T10:46:22.680Z,18.10
2018-12-20T10:48:51.629Z,21.30
2018-12-20T10:51:20.699Z,17.40
2018-12-20T10:53:49.721Z,17.27
2018-12-20T10:56:18.585Z,16.07
2018-12-20T10:58:47.604Z,17.30
2018-12-20T11:01:21.568Z,17.93
2018-12-20T11:03:54.729Z,25.13
2018-12-20T11:07:27.528Z,16.90
2018-12-20T11:10:01.625Z,15.30
2018-12-20T11:12:35.896Z,16.20
2018-12-20T11:15:05.281Z,15.60
2018-12-20T11:17:37.517Z,17.37
2018-12-20T11:20:05.569Z,15.73
2018-12-20T11:22:34.726Z,14.87
2018-12-20T11:25:03.749Z,16.37
2018-12-20T11:27:32.756Z,17.00
2018-12-20T11:30:01.713Z,16.03
2018-12-20T11:32:30.642Z,19.87
2018-12-20T11:34:59.594Z,20.10
2018-12-20T11:37:28.620Z,20.63
2018-12-20T11:39:59.723Z,19.13
2018-12-20T11:42:28.561Z,18.50
2018-12-20T11:44:57.591Z,17.07
2018-12-20T11:47:27.915Z,17.10
2018-12-20T11:49:57.353Z,19.47
2018-12-20T11:52:26.344Z,19.67
2018-12-20T11:54:55.262Z,23.70
2018-12-20T11:57:24.372Z,26.00
2018-12-20T11:59:53.418Z,22.13
2018-12-20T12:02:24.604Z,22.10
2018-12-20T12:04:53.549Z,27.47
2018-12-20T12:07:22.560Z,19.43
2018-12-20T12:09:51.554Z,22.27
2018-12-20T12:12:20.706Z,25.47
2018-12-20T12:14:49.687Z,25.00
2018-12-20T12:17:18.687Z,21.80
2018-12-20T12:19:47.751Z,25.00
2018-12-20T12:22:16.762Z,20.97
2018-12-20T12:24:45.721Z,23.87
2018-12-20T12:27:14.698Z,21.03
2018-12-20T12:29:43.790Z,24.20
2018-12-20T12:32:12.742Z,19.90
2018-12-20T12:34:41.709Z,19.73
2018-12-20T12:37:10.785Z,23.87
2018-12-20T12:39:39.770Z,26.23
2018-12-20T12:42:08.691Z,30.83
2018-12-20T12:44:37.637Z,30.77
2018-12-20T12:47:08.745Z,25.27
2018-12-20T12:49:37.788Z,28.70
2018-12-20T12:52:06.757Z,27.10
2018-12-20T12:54:35.797Z,27.70
2018-12-20T12:57:04.717Z,23.70
2018-12-20T12:59:33.717Z,31.07
2018-12-20T13:02:02.618Z,27.00
2018-12-20T13:04:31.601Z,23.23
2018-12-20T13:07:00.586Z,26.07
2018-12-20T13:09:29.589Z,26.03
2018-12-20T13:11:58.720Z,21.80
2018-12-20T13:14:27.720Z,22.67
2018-12-20T13:16:56.701Z,21.50
2018-12-20T13:19:25.695Z,27.63
2018-12-20T13:21:54.716Z,24.30
2018-12-20T13:24:23.857Z,26.67
2018-12-20T13:26:52.912Z,23.00
2018-12-20T13:29:21.980Z,24.37
2018-12-20T13:31:51.004Z,21.37
2018-12-20T13:34:20.032Z,20.27
2018-12-20T13:36:49.037Z,22.40
2018-12-20T13:39:18.137Z,19.50
2018-12-20T13:41:47.174Z,21.13
2018-12-20T13:44:16.225Z,17.27
2018-12-20T13:46:46.657Z,21.87
2018-12-20T13:49:15.685Z,24.97
2018-12-20T13:51:44.721Z,22.10
2018-12-20T13:54:13.860Z,23.47
2018-12-20T13:56:42.944Z,24.93
2018-12-20T13:59:11.995Z,22.73
2018-12-20T14:01:41.000Z,23.57
2018-12-20T14:04:10.036Z,29.80
2018-12-20T14:06:39.360Z,32.97
2018-12-20T14:09:10.004Z,27.13
2018-12-20T14:11:39.180Z,28.83
2018-12-20T14:14:08.188Z,28.67
2018-12-20T14:16:37.333Z,27.40
2018-12-20T14:19:06.354Z,28.47
2018-12-20T14:21:35.296Z,26.90
2018-12-20T14:24:04.412Z,27.50
2018-12-20T14:26:33.350Z,21.50
2018-12-20T14:29:02.404Z,19.83
2018-12-20T14:31:31.394Z,25.83
2018-12-20T14:34:00.385Z,31.30
2018-12-20T14:36:29.425Z,25.83
2018-12-20T14:38:58.486Z,27.37
2018-12-20T14:41:27.433Z,31.20
2018-12-20T14:43:56.484Z,29.67
2018-12-20T14:46:25.424Z,35.30
2018-12-20T14:49:24.829Z,32.03
2018-12-20T14:51:53.836Z,28.83
2018-12-20T14:54:23.008Z,29.93
2018-12-20T14:56:51.938Z,28.80
2018-12-20T14:59:20.932Z,21.10
2018-12-20T15:01:50.100Z,24.30
2018-12-20T15:04:19.010Z,25.20
2018-12-20T15:06:48.038Z,27.73
2018-12-20T15:09:17.103Z,31.50
2018-12-20T15:11:46.088Z,30.47
2018-12-20T15:14:15.099Z,25.40
2018-12-20T15:16:44.197Z,26.97
2018-12-20T15:19:13.144Z,24.10
2018-12-20T15:21:42.140Z,34.63
2018-12-20T15:24:11.124Z,27.90
2018-12-20T15:26:40.700Z,28.77
2018-12-20T15:29:09.834Z,28.90
2018-12-20T15:31:38.821Z,29.87
2018-12-20T15:34:07.805Z,27.37
2018-12-20T15:36:36.696Z,34.97
2018-12-20T15:39:07.691Z,33.50
2018-12-20T15:41:36.692Z,37.47
2018-12-20T15:44:05.701Z,37.90
2018-12-20T15:46:34.636Z,44.20
2018-12-20T15:49:03.736Z,34.27
2018-12-20T15:51:33.550Z,29.57
2018-12-20T15:54:02.514Z,28.30
2018-12-20T15:56:31.340Z,32.80
2018-12-20T15:59:00.322Z,28.93
2018-12-20T16:01:29.302Z,31.13
2018-12-20T16:03:58.213Z,36.63
2018-12-20T16:06:27.335Z,31.60
2018-12-20T16:08:56.274Z,28.70
2018-12-20T16:11:25.338Z,22.73
2018-12-20T16:13:54.436Z,23.37
2018-12-20T16:16:23.523Z,22.10
2018-12-20T16:18:52.576Z,26.63
2018-12-20T16:21:21.629Z,25.13
2018-12-20T16:23:50.614Z,32.67
2018-12-20T16:26:19.611Z,30.57
2018-12-20T16:28:48.640Z,31.77
2018-12-20T16:31:17.706Z,28.43
2018-12-20T16:33:46.653Z,31.47
2018-12-20T16:36:15.727Z,27.00
2018-12-20T16:38:44.811Z,31.90
2018-12-20T16:41:13.758Z,30.13
2018-12-20T16:43:42.761Z,27.60
2018-12-20T16:46:11.811Z,27.47
2018-12-20T16:48:40.750Z,28.17
2018-12-20T16:51:09.699Z,24.37
2018-12-20T16:53:38.638Z,22.70
2018-12-20T16:56:07.726Z,20.77
2018-12-20T16:58:36.802Z,22.60
2018-12-20T17:01:05.809Z,22.17
2018-12-20T17:03:35.077Z,21.40
2018-12-20T17:06:04.108Z,20.80
2018-12-20T17:08:33.232Z,22.60
2018-12-20T17:11:02.218Z,24.00
2018-12-20T17:13:31.208Z,24.00
2018-12-20T17:16:00.157Z,22.77
2018-12-20T17:18:29.093Z,21.63
2018-12-20T17:20:58.070Z,22.47
2018-12-20T17:23:35.423Z,22.47
2018-12-20T17:25:58.384Z,19.67
2018-12-20T17:28:27.434Z,22.30
2018-12-20T17:30:56.541Z,22.37
2018-12-20T17:33:25.537Z,22.83
2018-12-20T17:35:54.556Z,23.90
2018-12-20T17:38:23.562Z,25.40
2018-12-20T17:40:52.752Z,23.40
2018-12-20T17:43:21.728Z,24.37
2018-12-20T17:45:50.777Z,24.07
2018-12-20T17:48:19.704Z,26.30
2018-12-20T17:50:48.741Z,24.30
2018-12-20T17:53:17.721Z,25.00
2018-12-20T17:55:46.651Z,35.00
2018-12-20T17:58:15.648Z,28.30
2018-12-20T18:00:44.860Z,28.17
2018-12-20T18:03:13.940Z,26.47
2018-12-20T18:05:43.018Z,24.30
2018-12-20T18:08:12.049Z,21.57
2018-12-20T18:10:41.586Z,24.67
2018-12-20T18:13:10.679Z,26.53
2018-12-20T18:15:39.677Z,30.97
2018-12-20T18:18:08.688Z,39.07
2018-12-20T18:20:37.779Z,38.67
2018-12-20T18:23:06.796Z,36.70
2018-12-20T18:25:35.738Z,36.10
2018-12-20T18:28:04.696Z,29.57
2018-12-20T18:30:33.692Z,35.43
2018-12-20T18:33:02.733Z,31.70
2018-12-20T18:35:31.678Z,31.90
2018-12-20T18:38:00.754Z,29.73
2018-12-20T18:40:29.929Z,32.10
2018-12-20T18:42:58.923Z,35.57
2018-12-20T18:45:27.862Z,35.73
2018-12-20T18:47:56.944Z,32.10
2018-12-20T18:50:25.937Z,30.80
2018-12-20T18:52:54.873Z,28.63
2018-12-20T18:55:23.979Z,26.47
2018-12-20T18:57:52.961Z,30.40
2018-12-20T19:00:21.969Z,33.03
2018-12-20T19:02:51.064Z,34.00
2018-12-20T19:05:20.070Z,42.70
2018-12-20T19:07:49.001Z,27.37
2018-12-20T19:10:18.061Z,30.47
2018-12-20T19:12:47.080Z,29.37
2018-12-20T19:15:16.051Z,27.80
2018-12-20T19:17:45.053Z,29.30
2018-12-20T19:20:16.376Z,31.00
2018-12-20T19:22:45.063Z,35.30
2018-12-20T19:25:14.020Z,36.10
2018-12-20T19:27:42.940Z,34.63
2018-12-20T19:30:12.306Z,45.83
2018-12-20T19:32:41.341Z,39.40
2018-12-20T19:35:10.550Z,36.67
2018-12-20T19:37:39.573Z,32.27
2018-12-20T19:40:10.922Z,28.27
2018-12-20T19:42:39.906Z,32.80
2018-12-20T19:45:08.892Z,31.93
2018-12-20T19:47:38.246Z,24.80
2018-12-20T19:50:09.205Z,28.37
2018-12-20T19:52:38.191Z,27.90
2018-12-20T19:55:07.653Z,24.60
2018-12-20T19:57:36.686Z,23.20
2018-12-20T20:00:10.104Z,21.00
2018-12-20T20:02:39.149Z,22.43
2018-12-20T20:05:08.189Z,21.53
2018-12-20T20:07:37.257Z,23.13
2018-12-20T20:10:08.353Z,20.20
2018-12-20T20:12:37.356Z,21.50
2018-12-20T20:15:16.041Z,18.07
2018-12-20T20:17:39.605Z,20.37
2018-12-20T20:20:13.715Z,19.07
2018-12-20T20:22:39.657Z,18.87
2018-12-20T20:25:09.301Z,18.97
2018-12-20T20:27:38.337Z,20.23
2018-12-20T20:30:10.653Z,18.70
2018-12-20T20:32:39.640Z,18.73
2018-12-20T20:35:08.829Z,20.70
2018-12-20T20:37:37.825Z,21.50
2018-12-20T20:40:09.121Z,19.30
2018-12-20T20:42:38.085Z,18.67
2018-12-20T20:45:07.698Z,20.07
2018-12-20T20:47:36.644Z,20.13
2018-12-20T20:50:07.089Z,17.87
2018-12-20T20:52:36.180Z,18.13
2018-12-20T20:55:05.974Z,17.77
2018-12-20T20:57:35.001Z,17.00
2018-12-20T21:00:04.250Z,17.87
2018-12-20T21:02:33.097Z,16.63
2018-12-20T21:05:02.054Z,17.60
2018-12-20T21:07:31.037Z,18.70
2018-12-20T21:09:59.919Z,17.93
2018-12-20T21:12:28.965Z,15.70
2018-12-20T21:14:57.946Z,16.03
2018-12-20T21:17:26.941Z,19.30
2018-12-20T21:19:55.983Z,19.20
2018-12-20T21:22:24.940Z,19.33
2018-12-20T21:24:53.916Z,19.37
2018-12-20T21:27:22.952Z,17.20
2018-12-20T21:29:51.930Z,18.10
2018-12-20T21:32:20.909Z,19.53
2018-12-20T21:34:49.885Z,18.73
2018-12-20T21:37:18.829Z,17.97
2018-12-20T21:39:47.830Z,21.20
2018-12-20T21:42:16.917Z,18.63
2018-12-20T21:44:46.028Z,22.30
2018-12-20T21:47:14.915Z,19.80
2018-12-20T21:49:43.956Z,20.07
2018-12-20T21:52:13.309Z,19.83
2018-12-20T21:54:42.288Z,20.33
2018-12-20T21:57:11.299Z,20.83
2018-12-20T21:59:40.445Z,17.50
2018-12-20T22:02:09.469Z,18.63
2018-12-20T22:04:38.444Z,20.03
2018-12-20T22:07:07.517Z,20.23
2018-12-20T22:09:36.397Z,17.90
2018-12-20T22:12:05.429Z,21.40
2018-12-20T22:14:34.455Z,21.67
2018-12-20T22:17:03.455Z,22.27
2018-12-20T22:19:32.505Z,18.27
2018-12-20T22:22:01.478Z,20.90
2018-12-20T22:24:30.413Z,20.57
2018-12-20T22:26:59.244Z,20.37
2018-12-20T22:29:28.214Z,21.80
2018-12-20T22:31:57.235Z,19.03
2018-12-20T22:34:26.214Z,20.13
2018-12-20T22:36:55.100Z,21.30
2018-12-20T22:39:23.985Z,20.27
2018-12-20T22:41:53.022Z,20.67
2018-12-20T22:44:22.009Z,21.10
2018-12-20T22:46:51.088Z,22.13
2018-12-20T22:49:20.024Z,23.10
2018-12-20T22:51:49.001Z,20.50
2018-12-20T22:54:17.971Z,22.67
2018-12-20T22:56:46.900Z,23.53
2018-12-20T22:59:15.829Z,24.77
2018-12-20T23:01:44.879Z,26.37
2018-12-20T23:04:13.797Z,28.53
2018-12-20T23:06:42.828Z,29.33
2018-12-20T23:09:11.717Z,27.13
2018-12-20T23:11:40.669Z,30.53
2018-12-20T23:14:09.625Z,27.37
2018-12-20T23:16:38.556Z,30.40
2018-12-20T23:19:07.501Z,30.00
2018-12-20T23:21:36.489Z,28.07
2018-12-20T23:24:05.455Z,29.40
2018-12-20T23:26:34.452Z,26.27
2018-12-20T23:29:03.609Z,27.10
2018-12-20T23:31:32.669Z,24.77
2018-12-20T23:34:01.693Z,24.67
2018-12-20T23:36:30.717Z,22.40
2018-12-20T23:38:59.729Z,22.17
2018-12-20T23:41:28.608Z,25.30
2018-12-20T23:43:57.623Z,21.70
2018-12-20T23:46:26.595Z,22.47
2018-12-20T23:48:55.535Z,22.73
2018-12-20T23:51:24.505Z,21.53
2018-12-20T23:53:53.498Z,21.27
2018-12-20T23:56:22.369Z,19.70
2018-12-20T23:58:51.401Z,20.33
